Time;durP1;ratioP1;P1;durP2;ratioP2;P2;SDS_P1;SDS_P2;PMS_P1;PMS_P2;Temp;Humidity;BMP_temperature;BMP_pressure;BME280_temperature;BME280_humidity;BME280_pressure;Samples;Min_cycle;Max_cycle;Signal;HPM_P1;HPM_P2
2023/02/12 00:02:23;;;;;;;18.48;12.85;;;9.20;99.90;;;;;;5027122;28;20059;-62
2023/02/12 00:04:50;;;;;;;22.13;14.25;;;9.20;99.90;;;;;;5027299;28;20049;-63
2023/02/12 00:07:17;;;;;;;23.05;13.50;;;9.20;99.90;;;;;;5026606;28;20052;-62
2023/02/12 00:09:43;;;;;;;22.77;12.52;;;9.20;99.90;;;;;;5027155;28;20050;-63
2023/02/12 00:12:10;;;;;;;21.40;13.30;;;9.20;99.90;;;;;;5026657;28;20048;-62
2023/02/12 00:14:37;;;;;;;21.17;13.73;;;9.20;99.90;;;;;;5026936;28;20465;-61
2023/02/12 00:17:04;;;;;;;19.40;13.32;;;9.30;99.90;;;;;;5026930;28;20072;-63
2023/02/12 00:19:30;;;;;;;19.13;12.20;;;9.30;99.90;;;;;;5026714;28;20489;-61
2023/02/12 00:21:57;;;;;;;20.17;12.52;;;9.30;99.90;;;;;;5025986;28;20041;-62
2023/02/12 00:24:24;;;;;;;16.20;11.32;;;9.30;99.90;;;;;;5025993;28;20077;-62
2023/02/12 00:26:51;;;;;;;22.60;13.25;;;9.30;99.90;;;;;;5008462;28;20665;-62
2023/02/12 00:29:18;;;;;;;20.45;13.60;;;9.30;99.90;;;;;;5015742;28;20049;-62
2023/02/12 00:31:44;;;;;;;20.08;12.55;;;9.30;99.90;;;;;;5029809;28;20048;-62
2023/02/12 00:34:11;;;;;;;18.08;13.55;;;9.20;99.90;;;;;;5029677;28;20310;-63
2023/02/12 00:36:38;;;;;;;17.48;12.40;;;9.20;99.90;;;;;;4995827;28;20069;-63
2023/02/12 00:39:05;;;;;;;18.85;12.30;;;9.20;99.90;;;;;;5030009;28;20045;-63
2023/02/12 00:41:31;;;;;;;19.42;12.90;;;9.20;99.90;;;;;;5029711;28;20041;-62
2023/02/12 00:43:58;;;;;;;20.00;12.05;;;9.20;99.90;;;;;;5029490;28;20084;-62
2023/02/12 00:46:25;;;;;;;18.83;12.20;;;9.20;99.90;;;;;;5012422;28;20051;-62
2023/02/12 00:48:52;;;;;;;18.73;12.52;;;9.20;99.90;;;;;;5029105;28;20053;-62
2023/02/12 00:51:18;;;;;;;19.15;12.75;;;9.30;99.90;;;;;;5029738;28;20072;-61
2023/02/12 00:53:45;;;;;;;17.88;12.93;;;9.30;99.90;;;;;;5011784;28;20060;-62
2023/02/12 00:56:12;;;;;;;24.40;13.30;;;9.20;99.90;;;;;;5029326;28;20068;-61
2023/02/12 00:58:38;;;;;;;20.73;13.05;;;9.10;99.90;;;;;;5029495;28;20140;-62
2023/02/12 01:01:05;;;;;;;23.63;13.38;;;9.10;99.90;;;;;;5029778;28;20045;-62
2023/02/12 01:03:32;;;;;;;19.75;14.20;;;9.10;99.90;;;;;;5029753;28;20045;-62
2023/02/12 01:05:59;;;;;;;17.90;12.73;;;9.10;99.90;;;;;;5029453;28;20067;-62
2023/02/12 01:08:25;;;;;;;22.58;13.68;;;9.10;99.90;;;;;;5029216;28;20532;-61
2023/02/12 01:11:00;;;;;;;23.73;13.00;;;9.10;99.90;;;;;;5029512;28;20051;-62
2023/02/12 01:13:29;;;;;;;25.38;13.43;;;9.10;99.90;;;;;;5029315;28;20132;-62
2023/02/12 01:16:07;;;;;;;20.20;12.90;;;9.10;99.90;;;;;;4680434;28;10000378;-62
2023/02/12 01:18:35;;;;;;;18.08;12.88;;;9.10;99.90;;;;;;5027317;28;20088;-61
2023/02/12 01:21:08;;;;;;;17.38;13.63;;;9.10;99.90;;;;;;5017973;28;20041;-62
2023/02/12 01:23:35;;;;;;;19.63;13.13;;;9.00;99.90;;;;;;5029101;28;20049;-63
2023/02/12 01:26:01;;;;;;;18.10;13.30;;;9.00;99.90;;;;;;5029272;28;20047;-62
2023/02/12 01:28:28;;;;;;;18.13;13.43;;;9.00;99.90;;;;;;5011506;28;20077;-63
2023/02/12 01:30:55;;;;;;;21.92;14.15;;;9.10;99.90;;;;;;5025108;28;20041;-62
2023/02/12 01:33:21;;;;;;;19.98;14.20;;;9.00;99.90;;;;;;5028679;28;20500;-62
2023/02/12 01:35:48;;;;;;;18.20;12.85;;;9.10;99.90;;;;;;5028283;28;20056;-63
2023/02/12 01:38:15;;;;;;;22.20;14.98;;;9.10;99.90;;;;;;5029054;28;20052;-62
2023/02/12 01:40:42;;;;;;;25.58;13.50;;;9.10;99.90;;;;;;5028050;28;20041;-63
2023/02/12 01:43:11;;;;;;;21.92;13.00;;;9.10;99.90;;;;;;5028890;28;20132;-62
2023/02/12 01:45:44;;;;;;;18.65;13.60;;;9.10;99.90;;;;;;5028840;28;20121;-62
2023/02/12 01:48:15;;;;;;;16.38;12.27;;;9.20;99.90;;;;;;5028466;28;20596;-63
2023/02/12 01:50:43;;;;;;;25.00;14.50;;;9.10;99.90;;;;;;4990914;28;20046;-63
2023/02/12 01:53:09;;;;;;;18.05;13.05;;;9.10;99.90;;;;;;5011092;28;20171;-62
2023/02/12 01:55:36;;;;;;;17.60;12.68;;;9.10;99.90;;;;;;5028539;28;20045;-62
2023/02/12 01:58:03;;;;;;;22.17;13.77;;;9.10;99.90;;;;;;5028175;28;20067;-63
2023/02/12 02:00:32;;;;;;;19.17;13.80;;;9.00;99.90;;;;;;5028063;28;20049;-62
2023/02/12 02:02:58;;;;;;;18.98;12.63;;;9.00;99.90;;;;;;5011245;28;20140;-61
2023/02/12 02:05:49;;;;;;;15.07;11.70;;;9.00;99.90;;;;;;5011008;28;20448;-62
2023/02/12 02:08:15;;;;;;;16.48;11.57;;;9.10;99.90;;;;;;4995703;28;20053;-62
2023/02/12 02:10:42;;;;;;;14.80;11.00;;;9.00;99.90;;;;;;5028317;28;20096;-62
2023/02/12 02:15:56;;;;;;;17.30;8.57;;;9.00;99.90;;;;;;5012856;28;20042;-66
2023/02/12 02:18:29;;;;;;;10.55;7.22;;;9.00;99.90;;;;;;4994731;28;20049;-62
2023/02/12 02:21:13;;;;;;;10.98;7.45;;;9.00;99.90;;;;;;5011078;28;20105;-62
2023/02/12 02:23:47;;;;;;;15.48;8.52;;;9.10;99.90;;;;;;5010824;28;20052;-62
2023/02/12 02:26:40;;;;;;;14.80;8.95;;;9.10;99.90;;;;;;5027782;28;20103;-62
2023/02/12 02:29:18;;;;;;;10.38;7.90;;;9.00;99.90;;;;;;5013084;28;20508;-63
2023/02/12 02:31:48;;;;;;;16.92;10.88;;;9.00;99.90;;;;;;5010757;28;20048;-61
2023/02/12 02:34:23;;;;;;;12.32;9.27;;;9.10;99.90;;;;;;5010622;28;20127;-63
2023/02/12 02:36:56;;;;;;;15.15;9.10;;;9.10;99.90;;;;;;4990510;28;20497;-62
2023/02/12 02:39:37;;;;;;;16.73;10.48;;;9.00;99.90;;;;;;4999545;28;20046;-62
2023/02/12 02:42:14;;;;;;;13.48;9.38;;;9.00;99.90;;;;;;5009920;28;20754;-62
2023/02/12 02:45:03;;;;;;;14.70;8.93;;;9.00;99.90;;;;;;5027542;28;20567;-62
2023/02/12 02:47:55;;;;;;;14.02;9.13;;;9.00;99.90;;;;;;5002357;28;20084;-62
2023/02/12 02:50:24;;;;;;;14.88;10.23;;;8.90;99.90;;;;;;4992615;28;20054;-62
2023/02/12 02:52:51;;;;;;;16.67;9.10;;;8.90;99.90;;;;;;4989624;28;20136;-62
2023/02/12 02:55:19;;;;;;;13.30;9.35;;;8.90;99.90;;;;;;5026018;28;20053;-61
2023/02/12 02:57:58;;;;;;;16.48;10.15;;;8.90;99.90;;;;;;5009947;28;20041;-63
2023/02/12 03:00:32;;;;;;;14.63;9.30;;;9.00;99.90;;;;;;5009561;28;20049;-62
2023/02/12 03:03:01;;;;;;;17.55;10.30;;;9.00;99.90;;;;;;5009726;28;20099;-61
2023/02/12 03:05:31;;;;;;;13.38;9.20;;;9.00;99.90;;;;;;4993487;28;20053;-62
2023/02/12 03:08:13;;;;;;;13.93;9.05;;;9.00;99.90;;;;;;4993421;28;20045;-61
2023/02/12 03:10:43;;;;;;;16.92;9.23;;;9.00;99.90;;;;;;5027267;28;20519;-61
2023/02/12 03:13:34;;;;;;;16.08;9.30;;;8.90;99.90;;;;;;5009433;28;20052;-61
2023/02/12 03:16:15;;;;;;;10.90;8.43;;;8.90;99.90;;;;;;5015839;28;20077;-61
2023/02/12 03:18:49;;;;;;;14.88;9.15;;;9.00;99.90;;;;;;4989978;28;20045;-61
2023/02/12 03:21:19;;;;;;;13.52;9.20;;;9.00;99.90;;;;;;5010149;28;20060;-62
2023/02/12 03:23:47;;;;;;;12.40;9.20;;;9.00;99.90;;;;;;4993669;28;20045;-61
2023/02/12 03:26:20;;;;;;;12.57;8.15;;;8.90;99.90;;;;;;5009788;28;20054;-61
2023/02/12 03:28:47;;;;;;;16.50;9.52;;;8.80;99.90;;;;;;5009537;28;20064;-61
2023/02/12 03:31:33;;;;;;;12.73;8.45;;;8.80;99.90;;;;;;5027474;28;20052;-62
2023/02/12 03:34:21;;;;;;;12.95;8.35;;;8.80;99.90;;;;;;5009333;28;20305;-62
2023/02/12 03:37:13;;;;;;;14.05;8.80;;;8.80;99.90;;;;;;5010171;28;20046;-61
2023/02/12 03:40:07;;;;;;;12.63;8.77;;;8.90;99.90;;;;;;5009481;28;20059;-61
2023/02/12 03:42:44;;;;;;;13.83;8.63;;;8.80;99.90;;;;;;5026697;28;20082;-61
2023/02/12 03:45:35;;;;;;;13.82;8.77;;;8.80;99.90;;;;;;4993882;28;20055;-62
2023/02/12 03:48:08;;;;;;;14.32;8.55;;;8.80;99.90;;;;;;5027477;28;20531;-62
2023/02/12 03:50:40;;;;;;;12.07;8.37;;;8.80;99.90;;;;;;4989084;28;20128;-61
2023/02/12 03:53:07;;;;;;;12.18;8.10;;;8.90;99.90;;;;;;5007210;28;20046;-61
2023/02/12 03:55:35;;;;;;;17.73;10.88;;;8.80;99.90;;;;;;5007929;28;20045;-61
2023/02/12 03:58:02;;;;;;;13.38;9.15;;;8.80;99.90;;;;;;4993546;28;20048;-62
2023/02/12 04:00:29;;;;;;;17.95;8.90;;;8.80;99.90;;;;;;5008493;28;20057;-62
2023/02/12 04:02:55;;;;;;;15.00;9.60;;;8.80;99.90;;;;;;4988395;28;20042;-62
2023/02/12 04:05:24;;;;;;;12.20;8.77;;;8.80;99.90;;;;;;5007504;28;20457;-62
2023/02/12 04:07:51;;;;;;;17.70;9.68;;;8.80;99.90;;;;;;5030558;28;20072;-62
2023/02/12 04:10:25;;;;;;;13.43;8.90;;;8.80;99.90;;;;;;4996564;28;20136;-62
2023/02/12 04:13:03;;;;;;;14.07;8.27;;;8.70;99.90;;;;;;5012770;28;20420;-61
2023/02/12 04:15:54;;;;;;;19.00;9.32;;;8.70;99.90;;;;;;4993215;28;20092;-61
2023/02/12 04:18:27;;;;;;;14.25;8.90;;;8.60;99.90;;;;;;5011073;28;20104;-62
2023/02/12 04:21:12;;;;;;;15.75;9.45;;;8.60;99.90;;;;;;5009516;28;20068;-61
2023/02/12 04:23:54;;;;;;;12.52;8.43;;;8.70;99.90;;;;;;5030700;28;20560;-61
2023/02/12 04:26:26;;;;;;;15.05;8.85;;;8.70;99.90;;;;;;5030426;28;20053;-61
2023/02/12 04:29:24;;;;;;;12.05;8.35;;;8.70;99.90;;;;;;5030481;28;20046;-62
2023/02/12 04:32:04;;;;;;;12.45;8.77;;;8.70;99.90;;;;;;5030688;28;20077;-61
2023/02/12 04:34:39;;;;;;;13.68;7.90;;;8.70;99.90;;;;;;5014021;28;20392;-62
2023/02/12 04:37:25;;;;;;;16.23;9.23;;;8.70;99.90;;;;;;5027787;28;20552;-62
2023/02/12 04:39:51;;;;;;;18.58;9.30;;;8.60;99.90;;;;;;5005402;28;20064;-61
2023/02/12 04:42:18;;;;;;;14.88;9.68;;;8.70;99.90;;;;;;5012947;28;20068;-62
2023/02/12 04:44:45;;;;;;;14.57;9.05;;;8.60;99.90;;;;;;5013113;28;20056;-62
2023/02/12 04:47:12;;;;;;;16.52;8.48;;;8.70;99.90;;;;;;5029210;28;20041;-61
2023/02/12 04:49:39;;;;;;;13.15;8.00;;;8.70;99.90;;;;;;5030574;28;20049;-61
2023/02/12 04:52:06;;;;;;;15.77;9.48;;;8.70;99.90;;;;;;5029504;28;20045;-61
2023/02/12 04:54:33;;;;;;;14.50;8.90;;;8.70;99.90;;;;;;5029679;28;20447;-61
2023/02/12 04:57:00;;;;;;;14.10;9.15;;;8.60;99.90;;;;;;5029786;28;20050;-61
2023/02/12 04:59:26;;;;;;;12.77;8.63;;;8.60;99.90;;;;;;5012484;28;20123;-60
2023/02/12 05:01:53;;;;;;;14.18;8.10;;;8.60;99.90;;;;;;5029509;28;20488;-60
2023/02/12 05:04:20;;;;;;;15.55;8.57;;;8.60;99.90;;;;;;5029471;28;20050;-64
2023/02/12 05:06:46;;;;;;;13.40;8.70;;;8.60;99.90;;;;;;5029818;28;20136;-61
2023/02/12 05:09:15;;;;;;;14.90;7.63;;;8.60;99.90;;;;;;5029713;28;20046;-61
2023/02/12 05:11:42;;;;;;;13.35;8.95;;;8.60;99.90;;;;;;5029355;28;20045;-60
2023/02/12 05:14:09;;;;;;;14.63;8.30;;;8.60;99.90;;;;;;5029681;28;20073;-61
2023/02/12 05:16:35;;;;;;;13.88;6.95;;;8.60;99.90;;;;;;5029226;28;20081;-61
2023/02/12 05:19:02;;;;;;;11.70;8.60;;;8.60;99.90;;;;;;5029860;28;20050;-62
2023/02/12 05:21:29;;;;;;;11.50;7.55;;;8.60;99.90;;;;;;5029512;28;20080;-62
2023/02/12 05:23:55;;;;;;;17.10;7.85;;;8.50;99.90;;;;;;5029353;28;20120;-62
2023/02/12 05:26:23;;;;;;;12.15;7.72;;;8.60;99.90;;;;;;5029444;28;20322;-62
2023/02/12 05:28:49;;;;;;;10.80;7.72;;;8.60;99.90;;;;;;5025471;28;20045;-62
2023/02/12 05:31:17;;;;;;;10.60;7.47;;;8.60;99.90;;;;;;5029259;28;20508;-63
2023/02/12 05:33:47;;;;;;;14.10;8.00;;;8.60;99.90;;;;;;5029330;28;20037;-61
2023/02/12 05:36:16;;;;;;;12.27;7.65;;;8.50;99.90;;;;;;5029598;28;20046;-60
2023/02/12 05:38:43;;;;;;;12.13;7.07;;;8.50;99.90;;;;;;5027489;28;20128;-60
2023/02/12 05:41:21;;;;;;;16.23;8.73;;;8.60;99.90;;;;;;5027699;28;20136;-60
2023/02/12 05:43:48;;;;;;;13.52;7.70;;;8.50;99.90;;;;;;5028541;28;20049;-61
2023/02/12 05:46:15;;;;;;;11.77;8.07;;;8.50;99.90;;;;;;5029234;28;20061;-61
2023/02/12 05:48:42;;;;;;;11.95;7.95;;;8.50;99.90;;;;;;5027060;28;20064;-61
2023/02/12 05:51:20;;;;;;;11.60;7.95;;;8.50;99.90;;;;;;5027435;28;20577;-64
2023/02/12 05:53:48;;;;;;;10.00;7.07;;;8.50;99.90;;;;;;5026929;28;20099;-63
2023/02/12 05:56:16;;;;;;;18.08;8.52;;;8.50;99.90;;;;;;5027372;28;20052;-60
2023/02/12 05:58:46;;;;;;;12.73;8.43;;;8.50;99.90;;;;;;5026922;28;20049;-61
2023/02/12 06:01:15;;;;;;;13.52;7.78;;;8.50;99.90;;;;;;5027339;28;20168;-62
2023/02/12 06:03:42;;;;;;;16.85;9.35;;;8.50;99.90;;;;;;5028024;28;20496;-60
2023/02/12 06:06:09;;;;;;;12.95;7.72;;;8.50;99.90;;;;;;5028761;28;20489;-60
2023/02/12 06:08:36;;;;;;;19.05;8.98;;;8.50;99.90;;;;;;5028704;28;20051;-61
2023/02/12 06:11:04;;;;;;;16.20;8.73;;;8.50;99.90;;;;;;5028839;28;20059;-61
2023/02/12 06:13:30;;;;;;;13.50;8.77;;;8.50;99.90;;;;;;5028497;28;20096;-61
2023/02/12 06:15:57;;;;;;;17.95;8.45;;;8.60;99.90;;;;;;5028699;28;20053;-61
2023/02/12 06:18:25;;;;;;;14.43;8.25;;;8.60;99.90;;;;;;5028293;28;20404;-61
2023/02/12 06:20:55;;;;;;;13.30;8.05;;;8.50;99.90;;;;;;5028477;28;20128;-61
2023/02/12 06:23:22;;;;;;;17.98;9.45;;;8.50;99.90;;;;;;5020139;28;20095;-61
2023/02/12 06:25:49;;;;;;;12.70;7.95;;;8.50;99.90;;;;;;5028210;28;20051;-61
2023/02/12 06:28:16;;;;;;;11.10;8.65;;;8.50;99.90;;;;;;5027583;28;20496;-61
2023/02/12 06:30:43;;;;;;;14.23;8.40;;;8.40;99.90;;;;;;5027826;28;20107;-61
2023/02/12 06:33:10;;;;;;;14.52;7.50;;;8.40;99.90;;;;;;5028134;28;20053;-61
2023/02/12 06:35:37;;;;;;;14.25;7.78;;;8.50;99.90;;;;;;5027549;28;20566;-61
2023/02/12 06:38:03;;;;;;;12.88;6.68;;;8.50;99.90;;;;;;5028315;28;20053;-61
2023/02/12 06:40:30;;;;;;;14.75;6.95;;;8.50;99.90;;;;;;5010414;28;20057;-60
2023/02/12 06:42:57;;;;;;;13.05;7.78;;;8.50;99.90;;;;;;5027803;28;20472;-63
2023/02/12 06:45:24;;;;;;;16.50;7.57;;;8.50;99.90;;;;;;5027660;28;20053;-61
2023/02/12 06:47:51;;;;;;;15.07;8.13;;;8.50;99.90;;;;;;5027748;28;20042;-61
2023/02/12 06:50:18;;;;;;;14.52;7.85;;;8.50;99.90;;;;;;5027480;28;20046;-60
2023/02/12 06:52:44;;;;;;;12.57;7.00;;;8.50;99.90;;;;;;5027914;28;20041;-62
2023/02/12 06:55:11;;;;;;;22.92;9.63;;;8.50;99.90;;;;;;5027215;28;20049;-62
2023/02/12 06:57:38;;;;;;;18.15;7.70;;;8.50;99.90;;;;;;5027738;28;20049;-62
2023/02/12 07:00:05;;;;;;;15.88;8.18;;;8.50;99.90;;;;;;5027300;28;20075;-60
2023/02/12 07:02:32;;;;;;;12.57;6.53;;;8.50;99.90;;;;;;5027667;28;20037;-62
2023/02/12 07:04:58;;;;;;;14.30;7.53;;;8.50;99.90;;;;;;5026939;28;20520;-61
2023/02/12 07:07:25;;;;;;;14.98;6.93;;;8.50;99.90;;;;;;5027685;28;20064;-61
2023/02/12 07:09:52;;;;;;;16.42;6.97;;;8.50;99.90;;;;;;5027199;28;20120;-62
2023/02/12 07:12:18;;;;;;;15.45;7.18;;;8.60;99.90;;;;;;5027160;28;20153;-62
2023/02/12 07:14:45;;;;;;;10.07;7.13;;;8.60;99.90;;;;;;5026745;28;20049;-61
2023/02/12 07:17:12;;;;;;;10.18;6.88;;;8.60;99.90;;;;;;5006777;28;20041;-62
2023/02/12 07:19:39;;;;;;;11.63;6.90;;;8.60;99.90;;;;;;5027259;28;20053;-61
2023/02/12 07:22:05;;;;;;;12.10;7.53;;;8.60;99.90;;;;;;5026909;28;20056;-61
2023/02/12 07:24:32;;;;;;;12.10;6.45;;;8.60;99.90;;;;;;5009534;28;20237;-61
2023/02/12 07:26:59;;;;;;;9.73;5.38;;;8.60;99.90;;;;;;5009222;28;20045;-62
2023/02/12 07:29:25;;;;;;;11.20;6.20;;;8.60;99.90;;;;;;5027407;28;20055;-62
2023/02/12 07:31:52;;;;;;;9.75;6.30;;;8.60;99.90;;;;;;5027021;28;20037;-62
2023/02/12 07:34:19;;;;;;;11.70;6.25;;;8.60;99.90;;;;;;5027245;28;20057;-62
2023/02/12 07:36:46;;;;;;;12.98;7.55;;;8.60;99.90;;;;;;5026375;28;20053;-62
2023/02/12 07:39:13;;;;;;;12.07;6.93;;;8.60;99.90;;;;;;4678313;28;9999727;-63
2023/02/12 07:41:39;;;;;;;11.68;7.00;;;8.50;99.90;;;;;;5028562;28;20049;-61
2023/02/12 07:44:09;;;;;;;10.30;6.18;;;8.50;99.90;;;;;;5028706;28;20084;-62
2023/02/12 07:46:46;;;;;;;10.48;5.60;;;8.50;99.90;;;;;;4994646;28;20041;-61
2023/02/12 07:49:18;;;;;;;8.93;5.85;;;8.50;99.90;;;;;;4997922;28;20081;-62
2023/02/12 07:51:46;;;;;;;9.55;5.55;;;8.50;99.90;;;;;;5008579;28;20050;-62
2023/02/12 07:54:12;;;;;;;11.32;5.50;;;8.50;99.90;;;;;;4991319;28;20053;-64
2023/02/12 07:56:45;;;;;;;10.25;5.63;;;8.40;99.90;;;;;;5008796;28;20057;-62
2023/02/12 07:59:13;;;;;;;9.50;5.90;;;8.40;99.90;;;;;;5008671;28;20061;-62
2023/02/12 08:01:42;;;;;;;9.75;4.97;;;8.40;99.90;;;;;;4991455;28;20054;-61
2023/02/12 08:04:12;;;;;;;10.45;5.25;;;8.40;99.90;;;;;;5008846;28;20052;-61
2023/02/12 08:06:45;;;;;;;13.73;5.47;;;8.40;99.90;;;;;;5008687;28;20115;-61
2023/02/12 08:09:17;;;;;;;7.32;4.97;;;8.40;99.90;;;;;;4988221;28;20132;-63
2023/02/12 08:11:44;;;;;;;10.25;5.05;;;8.40;99.90;;;;;;5008723;28;20099;-62
2023/02/12 08:14:12;;;;;;;9.32;5.30;;;8.40;99.90;;;;;;5007305;28;20046;-61
2023/02/12 08:16:40;;;;;;;10.23;5.30;;;8.40;99.90;;;;;;4990955;28;20536;-61
2023/02/12 08:19:07;;;;;;;7.32;4.95;;;8.40;99.90;;;;;;5007878;28;20077;-61
2023/02/12 08:21:46;;;;;;;9.30;4.80;;;8.40;99.90;;;;;;5008208;28;20137;-60
2023/02/12 08:24:12;;;;;;;10.18;4.60;;;8.40;99.90;;;;;;5008125;28;20053;-60
2023/02/12 08:26:39;;;;;;;5.88;3.90;;;8.40;99.90;;;;;;4990286;28;20062;-61
2023/02/12 08:29:11;;;;;;;7.80;4.35;;;8.40;99.90;;;;;;5008028;28;20054;-61
2023/02/12 08:31:40;;;;;;;7.05;4.85;;;8.40;99.90;;;;;;5008614;28;20053;-62
2023/02/12 08:34:10;;;;;;;8.27;5.20;;;8.40;99.90;;;;;;5007599;28;20125;-63
2023/02/12 08:36:38;;;;;;;9.10;5.05;;;8.50;99.90;;;;;;4970927;28;20058;-62
2023/02/12 08:39:06;;;;;;;5.35;4.22;;;8.50;99.90;;;;;;5000739;28;20046;-62
2023/02/12 08:41:32;;;;;;;11.00;5.82;;;8.50;99.90;;;;;;5007751;28;20053;-62
2023/02/12 08:44:01;;;;;;;9.60;5.35;;;8.50;99.90;;;;;;5007516;28;20127;-61
2023/02/12 08:46:32;;;;;;;12.80;5.00;;;8.50;99.90;;;;;;5007696;28;20054;-63
2023/02/12 08:49:04;;;;;;;10.90;5.93;;;8.50;99.90;;;;;;5018788;28;20057;-63
2023/02/12 08:51:34;;;;;;;10.15;5.30;;;8.60;99.90;;;;;;5009164;28;20128;-66
2023/02/12 08:54:03;;;;;;;9.32;5.53;;;8.50;99.90;;;;;;5027468;28;20045;-62
2023/02/12 08:56:30;;;;;;;9.90;5.93;;;8.60;99.90;;;;;;5027298;28;20752;-61
2023/02/12 08:58:58;;;;;;;8.40;4.95;;;8.70;99.90;;;;;;5027032;28;20576;-62
2023/02/12 09:01:25;;;;;;;7.93;4.72;;;8.70;99.90;;;;;;5026653;28;20049;-61
2023/02/12 09:03:52;;;;;;;7.03;4.22;;;8.70;99.90;;;;;;5027149;28;20555;-61
2023/02/12 09:06:20;;;;;;;10.52;4.10;;;8.70;99.90;;;;;;5027444;28;20132;-60
2023/02/12 09:08:47;;;;;;;6.10;4.18;;;8.80;99.90;;;;;;5027219;28;20053;-60
2023/02/12 09:11:20;;;;;;;7.22;4.25;;;8.80;99.90;;;;;;5023830;28;20055;-61
2023/02/12 09:13:47;;;;;;;6.47;4.22;;;8.80;99.90;;;;;;5026772;28;20049;-60
2023/02/12 09:16:13;;;;;;;7.32;4.85;;;8.90;99.90;;;;;;4991829;28;20057;-60
2023/02/12 09:18:40;;;;;;;7.72;4.90;;;8.90;99.90;;;;;;5027199;28;20049;-60
2023/02/12 09:21:08;;;;;;;6.90;4.10;;;8.90;99.90;;;;;;5026346;28;20045;-60
2023/02/12 09:23:35;;;;;;;7.60;4.07;;;8.90;99.90;;;;;;5027509;28;20071;-60
2023/02/12 09:26:10;;;;;;;9.52;4.38;;;9.00;99.90;;;;;;5026758;28;20077;-60
2023/02/12 09:28:37;;;;;;;11.52;4.07;;;9.00;99.90;;;;;;5023986;28;20041;-59
2023/02/12 09:31:14;;;;;;;8.00;3.53;;;9.00;99.90;;;;;;5027961;28;20053;-60
2023/02/12 09:33:41;;;;;;;5.65;4.05;;;9.00;99.90;;;;;;5027602;28;20065;-60
2023/02/12 09:36:10;;;;;;;6.82;4.00;;;9.10;99.90;;;;;;5027810;28;20054;-60
2023/02/12 09:38:37;;;;;;;5.65;3.47;;;9.00;99.90;;;;;;5009882;28;20085;-60
2023/02/12 09:41:13;;;;;;;6.78;3.45;;;9.00;99.90;;;;;;5026948;28;20060;-60
2023/02/12 09:44:07;;;;;;;5.45;3.65;;;9.00;99.90;;;;;;5027512;28;20049;-61
2023/02/12 09:46:57;;;;;;;5.20;3.58;;;9.10;99.90;;;;;;5024157;28;20057;-60
2023/02/12 09:49:55;;;;;;;5.50;2.92;;;9.10;99.90;;;;;;5005678;28;20093;-61
2023/02/12 09:52:25;;;;;;;4.25;2.65;;;9.10;99.90;;;;;;5004904;28;20512;-60
2023/02/12 09:54:52;;;;;;;6.07;3.42;;;9.10;99.90;;;;;;5005399;28;20053;-61
2023/02/12 09:57:24;;;;;;;4.25;2.65;;;9.10;99.90;;;;;;5004681;28;20164;-60
2023/02/12 09:59:53;;;;;;;5.30;3.28;;;9.20;99.90;;;;;;5004643;28;20052;-60
2023/02/12 10:02:20;;;;;;;4.70;2.50;;;9.30;99.90;;;;;;4988146;28;20065;-61
2023/02/12 10:04:47;;;;;;;4.88;2.58;;;9.30;99.90;;;;;;4989055;28;20041;-60
2023/02/12 10:08:04;;;;;;;3.90;2.13;;;9.40;99.90;;;;;;5004536;28;20053;-61
2023/02/12 10:11:02;;;;;;;3.80;2.20;;;9.30;99.90;;;;;;4999348;28;20492;-60
2023/02/12 10:13:54;;;;;;;4.32;1.92;;;9.30;99.90;;;;;;5004532;28;20144;-61
2023/02/12 10:16:42;;;;;;;2.65;1.63;;;9.40;99.90;;;;;;4998194;28;20064;-60
2023/02/12 10:19:20;;;;;;;2.25;1.48;;;9.40;99.90;;;;;;4981586;28;20060;-60
2023/02/12 10:21:53;;;;;;;2.75;1.50;;;9.40;99.90;;;;;;5005070;28;20046;-63
2023/02/12 10:24:29;;;;;;;1.65;1.20;;;9.50;99.90;;;;;;5005968;28;20513;-64
2023/02/12 10:26:57;;;;;;;2.15;1.17;;;9.50;99.90;;;;;;5004871;28;20041;-61
2023/02/12 10:29:29;;;;;;;2.47;1.30;;;9.50;99.90;;;;;;4988774;28;20082;-60
2023/02/12 10:31:59;;;;;;;2.17;1.33;;;9.50;99.90;;;;;;5004192;28;20049;-61
2023/02/12 10:34:31;;;;;;;4.18;1.48;;;9.50;99.90;;;;;;4993822;28;20064;-60
2023/02/12 10:37:21;;;;;;;1.92;1.27;;;9.50;99.90;;;;;;5005748;28;20057;-60
2023/02/12 10:39:53;;;;;;;2.35;1.13;;;9.40;99.90;;;;;;5004905;28;20524;-60
2023/02/12 10:42:39;;;;;;;1.65;1.10;;;9.40;99.90;;;;;;4988913;28;20129;-59
2023/02/12 10:45:12;;;;;;;1.25;0.88;;;9.40;99.90;;;;;;4997459;28;20116;-60
2023/02/12 10:47:39;;;;;;;1.83;1.17;;;9.50;99.90;;;;;;5005485;28;20129;-62
2023/02/12 10:50:34;;;;;;;2.35;1.20;;;9.60;99.90;;;;;;4990954;28;20046;-62
2023/02/12 10:53:02;;;;;;;1.77;0.98;;;9.60;99.90;;;;;;4992231;28;20061;-62
2023/02/12 10:55:34;;;;;;;1.67;1.00;;;9.50;99.90;;;;;;5010413;28;20336;-61
2023/02/12 10:58:02;;;;;;;3.15;1.38;;;9.50;99.90;;;;;;5026806;28;20124;-60
2023/02/12 11:00:33;;;;;;;1.90;1.38;;;9.60;99.90;;;;;;5009778;28;20052;-61
2023/02/12 11:03:11;;;;;;;2.05;1.30;;;9.60;99.90;;;;;;5027326;28;20128;-61
2023/02/12 11:05:42;;;;;;;1.77;1.33;;;9.60;99.90;;;;;;5018176;28;20511;-61
2023/02/12 11:08:32;;;;;;;2.17;1.33;;;9.70;99.90;;;;;;5009402;28;20045;-61
2023/02/12 11:11:11;;;;;;;2.17;1.23;;;9.60;99.90;;;;;;5019663;28;20061;-60
2023/02/12 11:13:39;;;;;;;4.05;1.40;;;9.60;99.90;;;;;;5026691;28;20095;-60
2023/02/12 11:16:06;;;;;;;2.03;1.20;;;9.60;99.90;;;;;;4989784;28;20085;-61
2023/02/12 11:18:33;;;;;;;2.00;1.30;;;9.70;99.90;;;;;;5009122;28;20065;-61
2023/02/12 11:21:01;;;;;;;3.28;1.50;;;9.70;99.90;;;;;;5027196;28;20071;-63
2023/02/12 11:23:36;;;;;;;4.45;1.80;;;9.70;99.90;;;;;;5027091;28;20047;-61
2023/02/12 11:26:24;;;;;;;2.08;1.25;;;9.70;99.90;;;;;;5026793;28;20059;-62
2023/02/12 11:28:59;;;;;;;1.90;1.30;;;9.70;99.90;;;;;;4995432;28;20065;-62
2023/02/12 11:31:33;;;;;;;2.72;1.55;;;9.60;99.90;;;;;;4999793;28;20096;-62
2023/02/12 11:34:06;;;;;;;2.13;1.25;;;9.60;99.90;;;;;;5026916;28;20086;-62
2023/02/12 11:36:35;;;;;;;1.83;1.30;;;9.70;99.90;;;;;;5016346;28;20508;-62
2023/02/12 11:39:02;;;;;;;2.53;1.65;;;9.60;99.90;;;;;;4992977;28;20045;-63
2023/02/12 11:41:39;;;;;;;4.68;1.90;;;9.60;99.90;;;;;;4989717;28;20107;-61
2023/02/12 11:44:17;;;;;;;3.35;1.38;;;9.60;99.90;;;;;;5008665;28;20396;-61
2023/02/12 11:46:52;;;;;;;1.77;1.20;;;9.60;99.90;;;;;;5010099;28;20045;-61
2023/02/12 11:49:37;;;;;;;4.53;1.40;;;9.70;99.90;;;;;;5005055;28;20677;-61
2023/02/12 11:52:03;;;;;;;;;;;9.60;99.90;;;;;;4998524;28;20061;-62
2023/02/12 11:54:36;;;;;;;2.63;1.58;;;9.60;99.90;;;;;;5005482;28;19931;-61
2023/02/12 11:57:03;;;;;;;2.53;1.60;;;9.70;99.90;;;;;;5005066;28;20122;-62
2023/02/12 11:59:37;;;;;;;2.08;1.27;;;9.80;99.90;;;;;;5006890;28;20050;-61
2023/02/12 12:02:11;;;;;;;2.17;1.60;;;9.80;99.90;;;;;;5005749;28;20065;-61
2023/02/12 12:04:38;;;;;;;2.72;1.63;;;9.90;99.90;;;;;;5006731;28;20085;-62
2023/02/12 12:07:28;;;;;;;2.03;1.40;;;10.00;99.90;;;;;;4982559;28;20050;-60
2023/02/12 12:10:04;;;;;;;3.42;1.60;;;10.00;99.90;;;;;;5004404;28;20101;-61
2023/02/12 12:12:47;;;;;;;3.90;1.63;;;10.00;99.90;;;;;;5005651;28;20049;-61
2023/02/12 12:21:37;;;;;;;4.90;0.98;;;10.00;99.90;;;;;;5006304;28;20375;-61
2023/02/12 12:24:11;;;;;;;2.30;1.45;;;10.00;99.90;;;;;;5006808;28;20135;-61
2023/02/12 12:26:38;;;;;;;4.53;1.45;;;10.00;99.90;;;;;;5008064;28;20064;-62
2023/02/12 12:29:28;;;;;;;1.63;1.10;;;9.90;99.90;;;;;;5008972;28;20456;-62
2023/02/12 12:31:57;;;;;;;2.58;1.60;;;9.90;99.90;;;;;;5008492;28;20045;-62
2023/02/12 12:34:24;;;;;;;2.70;1.27;;;9.90;99.90;;;;;;5008821;28;20054;-61
2023/02/12 12:37:29;;;;;;;4.57;1.80;;;9.90;99.90;;;;;;5010127;28;20052;-62
2023/02/12 12:40:08;;;;;;;1.92;1.33;;;9.90;99.90;;;;;;4949244;29;20518;-62
2023/02/12 12:42:44;;;;;;;4.05;2.28;;;9.70;99.90;;;;;;5002683;28;20433;-62
2023/02/12 12:45:22;;;;;;;2.67;1.48;;;9.70;99.90;;;;;;4996267;28;20041;-63
2023/02/12 12:48:13;;;;;;;7.55;2.50;;;9.70;99.90;;;;;;4662667;28;10000257;-60
2023/02/12 12:51:14;;;;;;;2.70;1.65;;;9.70;99.90;;;;;;5012094;28;20404;-60
2023/02/12 12:53:56;;;;;;;3.75;1.73;;;9.70;99.90;;;;;;5026295;28;20049;-61
2023/02/12 12:56:47;;;;;;;2.45;1.55;;;9.70;99.90;;;;;;5027201;28;20099;-61
2023/02/12 12:59:17;;;;;;;3.20;1.98;;;9.60;99.90;;;;;;4998805;28;20055;-61
2023/02/12 13:02:37;;;;;;;6.70;1.90;;;9.70;99.90;;;;;;5026757;28;20059;-60
2023/02/12 13:05:32;;;;;;;3.17;1.80;;;9.70;99.90;;;;;;4960576;28;20145;-60
2023/02/12 13:08:20;;;;;;;3.65;2.10;;;9.80;99.90;;;;;;5009251;28;20053;-60
2023/02/12 13:10:56;;;;;;;2.85;2.03;;;9.80;99.90;;;;;;5026990;28;20073;-61
2023/02/12 13:13:33;;;;;;;3.10;2.10;;;9.80;99.90;;;;;;5009158;28;20524;-61
2023/02/12 13:16:23;;;;;;;3.33;2.03;;;9.90;99.90;;;;;;5027061;28;20067;-61
2023/02/12 13:18:50;;;;;;;3.67;2.03;;;9.90;99.90;;;;;;5026913;28;20096;-61
2023/02/12 13:21:19;;;;;;;5.35;1.90;;;9.80;99.90;;;;;;5015271;28;20190;-61
2023/02/12 13:24:06;;;;;;;4.90;1.85;;;9.80;99.90;;;;;;5009233;28;20067;-60